Davisville, Texas
Current Conditions -  °F | °C
As of 9:15 PM on Saturday 22 Nov 2014 (Local Time) from KDKR Reporting Station
NA  
Wind Chill: 66°   Ceiling: NA
Heat Index: 66°   Visibility: 7mi
Dew Point: 66°   Wind: 3mph
Humidity: 100%   Direction: 110°ESE
Pressure: 29.82"   Gusts: NA
Location:  31.2807°N, 95.8748°W
Report Text: KDKR 230315Z AUTO 11003KT 7SM 19/19 A2982 RMK AO2 LTG DSNT S
Loading
Personal Weather Stations






























Interactive Weather Map New forecast layout! Learn more

10-Day Weather Forecast

Advertisements
Track Severe Weather on mobile